createdAt,value
2018-09-13T00:00:25.691Z,92.38
2018-09-13T00:02:54.237Z,92.04
2018-09-13T00:05:22.784Z,92.22
2018-09-13T00:07:51.386Z,91.91
2018-09-13T00:10:20.000Z,92.25
2018-09-13T00:12:48.510Z,92.47
2018-09-13T00:15:17.019Z,91.95
2018-09-13T00:17:46.374Z,91.71
2018-09-13T00:20:14.936Z,91.92
2018-09-13T00:22:43.566Z,91.89
2018-09-13T00:25:12.094Z,92.34
2018-09-13T00:27:40.682Z,91.70
2018-09-13T00:30:09.219Z,91.70
2018-09-13T00:32:37.723Z,91.83
2018-09-13T00:35:06.319Z,91.64
2018-09-13T00:37:34.886Z,92.15
2018-09-13T00:40:03.396Z,91.73
2018-09-13T00:42:31.980Z,92.23
2018-09-13T00:45:00.488Z,92.22
2018-09-13T00:47:29.026Z,91.91
2018-09-13T00:49:57.601Z,92.22
2018-09-13T00:52:26.263Z,92.34
2018-09-13T00:54:54.859Z,91.67
2018-09-13T00:57:23.425Z,91.61
2018-09-13T00:59:51.927Z,91.91
2018-09-13T01:02:20.451Z,92.14
2018-09-13T01:04:49.002Z,92.17
2018-09-13T01:07:17.559Z,91.92
2018-09-13T01:09:46.112Z,91.88
2018-09-13T01:12:14.646Z,91.92
2018-09-13T01:14:43.231Z,91.47
2018-09-13T01:17:11.882Z,91.81
2018-09-13T01:19:40.435Z,91.64
2018-09-13T01:22:09.001Z,92.16
2018-09-13T01:24:37.625Z,91.81
2018-09-13T01:27:06.171Z,91.41
2018-09-13T01:29:34.724Z,92.02
2018-09-13T01:32:03.283Z,91.81
2018-09-13T01:34:31.862Z,91.38
2018-09-13T01:37:00.475Z,91.94
2018-09-13T01:39:29.074Z,91.36
2018-09-13T01:41:57.604Z,91.85
2018-09-13T01:44:26.150Z,91.37
2018-09-13T01:46:54.742Z,91.87
2018-09-13T01:49:23.276Z,91.44
2018-09-13T01:51:51.781Z,91.53
2018-09-13T01:54:20.349Z,91.75
2018-09-13T01:56:49.737Z,91.98
2018-09-13T01:59:18.316Z,92.02
2018-09-13T02:01:46.880Z,91.73
2018-09-13T02:04:15.460Z,91.60
2018-09-13T02:06:44.056Z,91.32
2018-09-13T02:09:12.620Z,91.53
2018-09-13T02:11:41.209Z,91.37
2018-09-13T02:14:09.726Z,91.97
2018-09-13T02:16:39.040Z,91.96
2018-09-13T02:19:07.679Z,92.05
2018-09-13T02:21:37.169Z,91.99
2018-09-13T02:24:05.697Z,91.92
2018-09-13T02:26:34.347Z,91.73
2018-09-13T02:29:02.998Z,91.87
2018-09-13T02:31:31.644Z,91.68
2018-09-13T02:34:00.202Z,91.67
2018-09-13T02:36:28.767Z,91.92
2018-09-13T02:38:57.316Z,91.24
2018-09-13T02:41:25.910Z,91.85
2018-09-13T02:43:54.489Z,91.36
2018-09-13T02:46:23.020Z,91.74
2018-09-13T02:48:51.539Z,91.63
2018-09-13T02:51:20.099Z,91.78
2018-09-13T02:53:48.631Z,91.79
2018-09-13T02:56:17.199Z,91.82
2018-09-13T02:58:45.697Z,91.33
2018-09-13T03:01:14.930Z,91.64
2018-09-13T03:03:44.064Z,91.36
2018-09-13T03:06:13.232Z,91.80
2018-09-13T03:08:41.817Z,91.80
2018-09-13T03:11:10.444Z,91.45
2018-09-13T03:13:38.992Z,91.88
2018-09-13T03:16:07.899Z,91.74
2018-09-13T03:18:36.556Z,91.52
2018-09-13T03:21:05.224Z,91.71
2018-09-13T03:23:33.754Z,91.71
2018-09-13T03:26:02.259Z,91.86
2018-09-13T03:28:30.790Z,91.51
2018-09-13T03:30:59.320Z,91.53
2018-09-13T03:33:27.859Z,91.41
2018-09-13T03:35:56.010Z,91.77
2018-09-13T03:38:24.502Z,91.51
2018-09-13T03:40:52.965Z,91.35
2018-09-13T03:43:21.447Z,92.01
2018-09-13T03:45:49.939Z,91.48
2018-09-13T03:48:18.420Z,91.27
2018-09-13T03:50:46.897Z,91.49
2018-09-13T03:53:15.417Z,91.34
2018-09-13T03:55:43.922Z,91.06
2018-09-13T03:58:12.404Z,91.36
2018-09-13T04:00:40.902Z,91.08
2018-09-13T04:03:09.389Z,91.83
2018-09-13T04:05:37.898Z,91.14
2018-09-13T04:08:06.466Z,91.83
2018-09-13T04:10:34.977Z,91.09
2018-09-13T04:13:03.526Z,91.73
2018-09-13T04:15:32.008Z,91.50
2018-09-13T04:18:00.494Z,91.03
2018-09-13T04:20:28.983Z,91.66
2018-09-13T04:22:57.468Z,91.39
2018-09-13T04:25:25.941Z,91.58
2018-09-13T04:27:54.434Z,91.64
2018-09-13T04:30:22.942Z,91.37
2018-09-13T04:32:51.585Z,91.36
2018-09-13T04:35:20.099Z,91.16
2018-09-13T04:37:48.634Z,91.45
2018-09-13T04:40:17.139Z,91.30
2018-09-13T04:42:45.634Z,91.00
2018-09-13T04:45:14.153Z,90.98
2018-09-13T04:47:42.722Z,91.00
2018-09-13T04:50:11.239Z,91.14
2018-09-13T04:52:39.867Z,90.45
2018-09-13T04:55:08.470Z,90.36
2018-09-13T04:57:37.147Z,88.38
2018-09-13T05:00:05.794Z,88.50
2018-09-13T05:02:34.427Z,89.15
2018-09-13T05:05:02.984Z,89.13
2018-09-13T05:07:31.626Z,89.63
2018-09-13T05:10:00.177Z,89.10
2018-09-13T05:12:28.793Z,89.52
2018-09-13T05:14:58.487Z,89.66
2018-09-13T05:17:28.060Z,89.78
2018-09-13T05:19:56.726Z,89.95
2018-09-13T05:22:25.362Z,89.78
2018-09-13T05:24:54.007Z,90.22
2018-09-13T05:27:22.596Z,90.17
2018-09-13T05:29:51.138Z,90.19
2018-09-13T05:32:19.719Z,89.66
2018-09-13T05:34:48.550Z,89.48
2018-09-13T05:37:17.112Z,89.23
2018-09-13T05:39:45.666Z,89.15
2018-09-13T05:42:14.252Z,89.51
2018-09-13T05:44:42.959Z,89.13
2018-09-13T05:47:11.489Z,89.06
2018-09-13T05:49:40.058Z,89.07
2018-09-13T05:52:08.640Z,89.19
2018-09-13T05:54:37.351Z,88.83
2018-09-13T05:57:05.883Z,89.39
2018-09-13T05:59:34.496Z,89.17
2018-09-13T06:02:03.072Z,89.20
2018-09-13T06:04:31.590Z,89.45
2018-09-13T06:07:00.137Z,89.53
2018-09-13T06:09:28.704Z,88.88
2018-09-13T06:11:57.231Z,89.41
2018-09-13T06:14:25.772Z,89.11
2018-09-13T06:16:54.360Z,89.48
2018-09-13T06:19:22.867Z,88.99
2018-09-13T06:21:51.439Z,89.14
2018-09-13T06:24:20.028Z,89.30
2018-09-13T06:26:48.675Z,89.44
2018-09-13T06:29:17.268Z,89.77
2018-09-13T06:31:45.901Z,89.32
2018-09-13T06:34:14.460Z,89.22
2018-09-13T06:36:43.084Z,89.27
2018-09-13T06:39:12.197Z,89.92
2018-09-13T06:41:41.215Z,89.96
2018-09-13T06:44:10.503Z,89.28
2018-09-13T06:46:39.309Z,89.42
2018-09-13T06:49:08.048Z,89.95
2018-09-13T06:51:36.671Z,89.37
2018-09-13T06:54:05.377Z,89.37
2018-09-13T06:56:34.064Z,89.37
2018-09-13T06:59:02.812Z,90.09
2018-09-13T07:01:31.613Z,90.25
2018-09-13T07:04:00.462Z,90.24
2018-09-13T07:06:29.344Z,90.27
2018-09-13T07:08:58.239Z,90.03
2018-09-13T07:11:27.555Z,90.26
2018-09-13T07:13:56.395Z,89.74
2018-09-13T07:16:25.201Z,89.55
2018-09-13T07:18:54.004Z,89.62
2018-09-13T07:21:22.784Z,89.79
2018-09-13T07:23:51.454Z,89.62
2018-09-13T07:26:20.179Z,89.68
2018-09-13T07:28:48.872Z,90.06
2018-09-13T07:31:17.550Z,90.04
2018-09-13T07:33:46.149Z,89.87
2018-09-13T07:36:14.740Z,90.30
2018-09-13T07:38:43.412Z,90.10
2018-09-13T07:41:12.024Z,90.27
2018-09-13T07:43:41.868Z,89.88
2018-09-13T07:46:10.493Z,89.70
2018-09-13T07:48:39.050Z,90.20
2018-09-13T07:51:07.722Z,89.76
2018-09-13T07:53:37.201Z,90.44
2018-09-13T07:56:08.803Z,89.82
2018-09-13T07:58:37.404Z,89.97
2018-09-13T08:01:06.014Z,89.93
2018-09-13T08:03:34.737Z,90.23
2018-09-13T08:06:03.330Z,90.21
2018-09-13T08:08:31.921Z,90.25
2018-09-13T08:11:00.456Z,89.96
2018-09-13T08:13:29.059Z,90.38
2018-09-13T08:15:57.694Z,90.43
2018-09-13T08:18:26.304Z,90.46
2018-09-13T08:20:54.913Z,90.35
2018-09-13T08:23:23.518Z,90.16
2018-09-13T08:25:52.083Z,90.37
2018-09-13T08:28:21.414Z,89.90
2018-09-13T08:30:49.955Z,90.60
2018-09-13T08:33:18.643Z,90.30
2018-09-13T08:35:47.144Z,90.26
2018-09-13T08:38:15.807Z,90.21
2018-09-13T08:40:44.481Z,90.13
2018-09-13T08:43:13.324Z,90.12
2018-09-13T08:45:41.883Z,90.61
2018-09-13T08:48:10.489Z,90.03
2018-09-13T08:50:39.050Z,90.46
2018-09-13T08:53:07.710Z,90.11
2018-09-13T08:55:36.220Z,90.04
2018-09-13T08:58:04.795Z,90.69
2018-09-13T09:00:33.956Z,90.27
2018-09-13T09:03:02.606Z,90.13
2018-09-13T09:05:32.071Z,90.14
2018-09-13T09:08:00.603Z,90.75
2018-09-13T09:10:29.123Z,90.71
2018-09-13T09:12:57.712Z,91.85
2018-09-13T09:15:26.403Z,92.12
2018-09-13T09:17:55.014Z,91.22
2018-09-13T09:20:23.659Z,90.56
2018-09-13T09:22:52.487Z,89.98
2018-09-13T09:25:21.048Z,89.68
2018-09-13T09:27:49.555Z,90.04
2018-09-13T09:30:18.085Z,90.05
2018-09-13T09:32:46.597Z,90.14
2018-09-13T09:35:15.087Z,90.27
2018-09-13T09:37:43.570Z,90.18
2018-09-13T09:40:12.127Z,89.68
2018-09-13T09:42:40.662Z,90.39
2018-09-13T09:45:09.180Z,89.90
2018-09-13T09:47:37.701Z,90.48
2018-09-13T09:50:06.932Z,89.91
2018-09-13T09:52:35.443Z,90.56
2018-09-13T09:55:03.952Z,90.32
2018-09-13T09:57:32.461Z,90.69
2018-09-13T10:00:01.016Z,90.09
2018-09-13T10:02:29.509Z,90.87
2018-09-13T10:04:58.003Z,90.82
2018-09-13T10:07:26.584Z,90.55
2018-09-13T10:09:55.129Z,90.76
2018-09-13T10:12:23.691Z,90.35
2018-09-13T10:14:57.592Z,90.98
2018-09-13T10:17:31.175Z,90.98
2018-09-13T10:20:05.015Z,90.72
2018-09-13T10:22:38.584Z,90.66
2018-09-13T10:25:12.552Z,90.66
2018-09-13T10:27:46.074Z,90.84
2018-09-13T10:30:19.779Z,90.22
2018-09-13T10:33:55.220Z,90.86
2018-09-13T10:36:29.109Z,90.98
2018-09-13T10:39:02.852Z,90.98
2018-09-13T10:41:36.737Z,90.30
2018-09-13T10:44:10.451Z,91.07
2018-09-13T10:46:38.946Z,90.92
2018-09-13T10:49:12.757Z,91.04
2018-09-13T10:52:20.329Z,91.05
2018-09-13T10:54:48.829Z,90.58
2018-09-13T10:57:22.430Z,90.85
2018-09-13T10:59:50.914Z,90.90
2018-09-13T11:02:19.499Z,91.08
2018-09-13T11:04:47.999Z,90.68
2018-09-13T11:07:16.493Z,90.76
2018-09-13T11:09:45.049Z,90.61
2018-09-13T11:12:13.564Z,91.05
2018-09-13T11:14:50.220Z,91.23
2018-09-13T11:17:18.741Z,90.98
2018-09-13T11:19:47.635Z,90.70
2018-09-13T11:22:16.167Z,91.16
2018-09-13T11:24:44.710Z,90.64
2018-09-13T11:27:13.334Z,90.54
2018-09-13T11:29:41.927Z,91.11
2018-09-13T11:32:11.136Z,91.21
2018-09-13T11:34:39.654Z,91.37
2018-09-13T11:37:08.196Z,90.52
2018-09-13T11:39:36.734Z,90.67
2018-09-13T11:42:05.320Z,90.77
2018-09-13T11:44:34.125Z,91.14
2018-09-13T11:47:02.655Z,90.72
2018-09-13T11:49:31.232Z,90.67
2018-09-13T11:52:00.584Z,91.26
2018-09-13T11:54:29.135Z,90.78
2018-09-13T11:56:57.712Z,91.47
2018-09-13T11:59:26.254Z,91.01
2018-09-13T12:01:54.766Z,91.34
2018-09-13T12:04:23.339Z,91.46
2018-09-13T12:06:51.857Z,91.33
2018-09-13T12:09:20.390Z,90.53
2018-09-13T12:11:48.859Z,91.42
2018-09-13T12:14:17.340Z,90.91
2018-09-13T12:16:45.847Z,91.35
2018-09-13T12:19:14.362Z,90.99
2018-09-13T12:21:42.941Z,91.32
2018-09-13T12:24:11.439Z,90.91
2018-09-13T12:26:39.950Z,91.39
2018-09-13T12:29:08.434Z,91.53
2018-09-13T12:31:36.922Z,90.92
2018-09-13T12:34:05.451Z,91.29
2018-09-13T12:36:34.071Z,91.01
2018-09-13T12:39:02.630Z,91.32
2018-09-13T12:41:31.179Z,90.60
2018-09-13T12:43:59.762Z,91.17
2018-09-13T12:46:28.269Z,90.48
2018-09-13T12:48:56.787Z,90.81
2018-09-13T12:51:26.263Z,90.96
2018-09-13T12:53:54.804Z,90.28
2018-09-13T12:56:23.338Z,91.00
2018-09-13T12:58:51.936Z,90.91
2018-09-13T13:01:20.429Z,90.27
2018-09-13T13:03:48.910Z,90.89
2018-09-13T13:06:17.604Z,90.32
2018-09-13T13:08:46.147Z,90.82
2018-09-13T13:11:14.639Z,90.81
2018-09-13T13:13:43.250Z,90.75
2018-09-13T13:16:11.744Z,90.56
2018-09-13T13:18:40.270Z,90.83
2018-09-13T13:21:09.013Z,90.58
2018-09-13T13:23:37.824Z,90.28
2018-09-13T13:26:06.391Z,90.32
2018-09-13T13:28:35.232Z,90.26
2018-09-13T13:31:03.795Z,90.31
2018-09-13T13:33:32.283Z,90.20
2018-09-13T13:36:00.793Z,90.68
2018-09-13T13:38:29.330Z,90.34
2018-09-13T13:40:57.844Z,90.90
2018-09-13T13:43:26.355Z,90.28
2018-09-13T13:45:54.967Z,90.98
2018-09-13T13:48:23.513Z,90.62
2018-09-13T13:50:52.124Z,90.52
2018-09-13T13:53:20.806Z,90.70
2018-09-13T13:55:49.406Z,90.38
2018-09-13T13:58:18.370Z,90.92
2018-09-13T14:00:47.016Z,91.02
2018-09-13T14:03:15.955Z,90.55
2018-09-13T14:05:44.669Z,90.53
2018-09-13T14:08:13.319Z,91.27
2018-09-13T14:10:41.997Z,90.81
2018-09-13T14:13:10.716Z,91.14
2018-09-13T14:15:39.421Z,91.18
2018-09-13T14:18:08.276Z,90.78
2018-09-13T14:20:36.817Z,90.62
2018-09-13T14:23:05.552Z,91.24
2018-09-13T14:25:34.085Z,91.25
2018-09-13T14:28:02.727Z,91.16
2018-09-13T14:30:31.352Z,91.27
2018-09-13T14:32:59.942Z,90.79
2018-09-13T14:35:28.598Z,90.81
2018-09-13T14:37:57.210Z,90.94
2018-09-13T14:40:25.878Z,90.80
2018-09-13T14:42:54.461Z,90.44
2018-09-13T14:45:23.038Z,90.69
2018-09-13T14:47:52.219Z,91.14
2018-09-13T14:50:20.786Z,91.09
2018-09-13T14:52:49.985Z,90.69
2018-09-13T14:55:18.470Z,90.96
2018-09-13T14:57:46.979Z,91.06
2018-09-13T15:00:15.536Z,90.52
2018-09-13T15:02:44.099Z,90.90
2018-09-13T15:05:12.730Z,90.34
2018-09-13T15:07:41.340Z,95.16
2018-09-13T15:10:09.834Z,92.73
2018-09-13T15:12:38.576Z,91.57
2018-09-13T15:15:07.132Z,92.78
2018-09-13T15:17:35.691Z,92.48
2018-09-13T15:20:04.227Z,92.11
2018-09-13T15:22:32.743Z,92.15
2018-09-13T15:25:01.258Z,92.03
2018-09-13T15:27:29.840Z,91.77
2018-09-13T15:29:58.358Z,91.79
2018-09-13T15:32:26.877Z,91.21
2018-09-13T15:34:55.505Z,91.76
2018-09-13T15:37:24.148Z,91.65
2018-09-13T15:39:52.726Z,91.50
2018-09-13T15:42:21.343Z,90.96
2018-09-13T15:44:51.172Z,90.72
2018-09-13T15:47:19.823Z,90.76
2018-09-13T15:49:48.646Z,91.07
2018-09-13T15:52:17.635Z,90.59
2018-09-13T15:54:46.206Z,90.52
2018-09-13T15:57:14.808Z,90.47
2018-09-13T15:59:43.463Z,90.71
2018-09-13T16:02:12.232Z,90.11
2018-09-13T16:04:40.923Z,90.09
2018-09-13T16:07:10.419Z,90.39
2018-09-13T16:09:39.092Z,90.10
2018-09-13T16:12:07.771Z,90.52
2018-09-13T16:14:36.332Z,90.21
2018-09-13T16:17:04.945Z,90.33
2018-09-13T16:19:33.502Z,89.83
2018-09-13T16:22:02.121Z,90.00
2018-09-13T16:24:30.748Z,89.97
2018-09-13T16:26:59.334Z,90.02
2018-09-13T16:29:28.011Z,89.80
2018-09-13T16:31:56.672Z,90.03
2018-09-13T16:34:25.273Z,90.27
2018-09-13T16:37:04.896Z,90.43
2018-09-13T16:39:38.851Z,89.93
2018-09-13T16:42:12.604Z,90.38
2018-09-13T16:44:47.059Z,90.22
2018-09-13T16:47:28.585Z,90.26
2018-09-13T16:49:58.232Z,90.33
2018-09-13T16:52:27.359Z,90.71
2018-09-13T16:54:56.092Z,89.90
2018-09-13T16:57:24.779Z,90.86
2018-09-13T16:59:53.517Z,90.46
2018-09-13T17:02:22.876Z,90.86
2018-09-13T17:04:51.448Z,90.68
2018-09-13T17:07:20.432Z,90.80
2018-09-13T17:09:50.617Z,90.20
2018-09-13T17:12:20.282Z,90.33
2018-09-13T17:14:49.023Z,90.40
2018-09-13T17:17:17.729Z,90.87
2018-09-13T17:19:46.356Z,90.89
2018-09-13T17:22:15.021Z,90.40
2018-09-13T17:24:43.698Z,90.15
2018-09-13T17:27:12.455Z,90.72
2018-09-13T17:29:41.152Z,90.83
2018-09-13T17:32:09.851Z,90.30
2018-09-13T17:34:38.480Z,90.24
2018-09-13T17:37:07.371Z,90.84
2018-09-13T17:39:35.982Z,90.10
2018-09-13T17:42:04.666Z,90.76
2018-09-13T17:44:33.286Z,90.71
2018-09-13T17:47:01.780Z,91.53
2018-09-13T17:49:30.312Z,90.71
2018-09-13T17:51:58.814Z,89.53
2018-09-13T17:54:27.343Z,89.97
2018-09-13T17:56:55.858Z,89.71
2018-09-13T17:59:24.379Z,89.45
2018-09-13T18:01:52.886Z,89.39
2018-09-13T18:04:21.391Z,89.48
2018-09-13T18:06:49.997Z,90.50
2018-09-13T18:09:18.521Z,90.05
2018-09-13T18:11:47.033Z,89.79
2018-09-13T18:14:15.574Z,90.55
2018-09-13T18:16:44.089Z,90.83
2018-09-13T18:19:12.584Z,91.19
2018-09-13T18:21:41.092Z,91.46
2018-09-13T18:24:09.704Z,91.27
2018-09-13T18:26:38.175Z,91.72
2018-09-13T18:29:06.698Z,92.66
2018-09-13T18:31:35.218Z,92.39
2018-09-13T18:34:04.190Z,92.24
2018-09-13T18:36:32.735Z,91.77
2018-09-13T18:39:01.474Z,91.88
2018-09-13T18:41:29.988Z,92.25
2018-09-13T18:43:59.198Z,92.24
2018-09-13T18:46:27.770Z,91.68
2018-09-13T18:48:56.608Z,92.12
2018-09-13T18:51:26.232Z,91.63
2018-09-13T18:53:55.443Z,91.98
2018-09-13T18:56:24.451Z,91.94
2018-09-13T18:58:53.033Z,92.00
2018-09-13T19:01:22.146Z,91.71
2018-09-13T19:03:50.751Z,91.67
2018-09-13T19:06:19.323Z,91.74
2018-09-13T19:08:47.838Z,92.19
2018-09-13T19:11:16.504Z,92.33
2018-09-13T19:13:45.141Z,91.73
2018-09-13T19:16:13.801Z,91.75
2018-09-13T19:18:42.350Z,92.65
2018-09-13T19:21:10.954Z,92.88
2018-09-13T19:23:39.499Z,92.67
2018-09-13T19:26:08.132Z,93.47
2018-09-13T19:28:36.703Z,92.53
2018-09-13T19:31:05.798Z,93.17
2018-09-13T19:33:34.357Z,93.66
2018-09-13T19:36:02.943Z,93.20
2018-09-13T19:38:31.619Z,92.95
2018-09-13T19:41:00.167Z,93.37
2018-09-13T19:43:28.763Z,92.80
2018-09-13T19:45:58.091Z,92.95
2018-09-13T19:48:26.750Z,93.08
2018-09-13T19:50:55.349Z,92.64
2018-09-13T19:53:23.897Z,92.87
2018-09-13T19:55:52.426Z,94.05
2018-09-13T19:58:21.007Z,93.94
2018-09-13T20:00:49.647Z,94.59
2018-09-13T20:03:18.283Z,94.07
2018-09-13T20:05:46.826Z,93.74
2018-09-13T20:08:15.371Z,94.11
2018-09-13T20:10:43.946Z,94.44
2018-09-13T20:13:12.617Z,94.52
2018-09-13T20:15:41.206Z,94.66
2018-09-13T20:18:09.925Z,95.16
2018-09-13T20:20:38.443Z,95.15
2018-09-13T20:23:07.082Z,94.89
2018-09-13T20:25:35.661Z,95.27
2018-09-13T20:28:04.202Z,94.42
2018-09-13T20:30:32.823Z,94.06
2018-09-13T20:33:01.436Z,94.05
2018-09-13T20:35:29.979Z,93.68
2018-09-13T20:37:58.542Z,94.95
2018-09-13T20:40:27.180Z,94.69
2018-09-13T20:42:55.729Z,95.72
2018-09-13T20:45:24.360Z,95.24
2018-09-13T20:47:52.995Z,95.33
2018-09-13T20:50:21.618Z,95.62
2018-09-13T20:52:50.274Z,94.99
2018-09-13T20:55:18.835Z,95.37
2018-09-13T20:57:47.432Z,95.72
2018-09-13T21:00:20.008Z,95.36
2018-09-13T21:02:50.008Z,95.67
2018-09-13T21:05:19.132Z,95.57
2018-09-13T21:07:47.689Z,95.82
2018-09-13T21:10:17.055Z,95.79
2018-09-13T21:12:45.719Z,95.23
2018-09-13T21:15:14.296Z,95.08
2018-09-13T21:17:42.957Z,95.19
2018-09-13T21:20:11.510Z,95.00
2018-09-13T21:22:40.087Z,94.78
2018-09-13T21:25:08.609Z,94.58
2018-09-13T21:27:37.857Z,94.18
2018-09-13T21:30:06.509Z,94.90
2018-09-13T21:32:35.083Z,94.78
2018-09-13T21:35:03.597Z,94.84
2018-09-13T21:37:32.124Z,94.31
2018-09-13T21:40:00.681Z,94.50
2018-09-13T21:42:29.304Z,94.61
2018-09-13T21:44:57.858Z,94.91
2018-09-13T21:47:26.440Z,94.25
2018-09-13T21:49:55.005Z,94.71
2018-09-13T21:52:23.518Z,94.70
2018-09-13T21:54:52.055Z,94.84
2018-09-13T21:57:20.667Z,94.50
2018-09-13T21:59:49.195Z,94.85
2018-09-13T22:02:17.760Z,94.66
2018-09-13T22:04:46.389Z,94.35
2018-09-13T22:07:15.035Z,94.83
2018-09-13T22:09:43.569Z,94.61
2018-09-13T22:12:12.785Z,94.46
2018-09-13T22:14:41.626Z,94.06
2018-09-13T22:17:10.813Z,94.07
2018-09-13T22:19:39.389Z,94.77
2018-09-13T22:22:08.090Z,94.39
2018-09-13T22:24:36.714Z,94.01
2018-09-13T22:27:05.384Z,94.74
2018-09-13T22:29:34.015Z,94.64
2018-09-13T22:32:03.637Z,94.17
2018-09-13T22:34:32.215Z,93.96
2018-09-13T22:37:00.895Z,94.50
2018-09-13T22:39:29.478Z,93.87
2018-09-13T22:41:58.047Z,94.18
2018-09-13T22:44:26.687Z,94.48
2018-09-13T22:46:56.235Z,94.58
2018-09-13T22:49:24.750Z,93.96
2018-09-13T22:51:53.412Z,94.21
2018-09-13T22:54:22.013Z,94.36
2018-09-13T22:56:50.598Z,93.86
2018-09-13T22:59:19.292Z,94.52
2018-09-13T23:01:47.868Z,94.34
2018-09-13T23:04:17.327Z,94.43
2018-09-13T23:06:45.913Z,94.41
2018-09-13T23:09:14.536Z,94.43
2018-09-13T23:11:43.112Z,94.19
2018-09-13T23:14:11.666Z,94.37
2018-09-13T23:16:40.248Z,94.51
2018-09-13T23:19:08.860Z,93.88
2018-09-13T23:21:37.468Z,93.95
2018-09-13T23:24:06.045Z,93.78
2018-09-13T23:26:34.594Z,94.03
2018-09-13T23:29:03.287Z,94.43
2018-09-13T23:31:31.926Z,94.26
2018-09-13T23:34:00.519Z,94.17
2018-09-13T23:36:29.179Z,93.71
2018-09-13T23:38:57.796Z,94.16
2018-09-13T23:41:26.334Z,93.68
2018-09-13T23:43:55.750Z,93.79
2018-09-13T23:46:24.433Z,93.78
2018-09-13T23:48:53.013Z,93.95
2018-09-13T23:51:21.721Z,94.22
2018-09-13T23:53:50.320Z,93.70
2018-09-13T23:56:19.057Z,94.16
2018-09-13T23:58:48.170Z,93.39
